Time,TemperatureF,DewpointF,PressureIn,WindDirection,WindDirectionDegrees,WindSpeedMPH,WindSpeedGustMPH,Humidity,HourlyPrecipIn,Conditions,Clouds,dailyrainin,SoftwareType,DateUTC
2013-04-30 00:00:00,49.0,44.0,30.28,SE,130,9.0,9.0,82,-99.99,,,-99.99,,2013-04-30 04:00:00,
2013-04-30 00:22:00,49.0,44.0,30.28,SE,130,9.0,9.0,82,-99.99,,,-99.99,,2013-04-30 04:22:00,
2013-04-30 00:32:00,49.0,44.0,30.28,SE,130,9.0,9.0,82,-99.99,,,-99.99,,2013-04-30 04:32:00,
2013-04-30 00:42:00,49.0,44.0,30.28,SE,130,9.0,9.0,82,-99.99,,,-99.99,,2013-04-30 04:42:00,
2013-04-30 00:52:00,49.0,44.0,30.28,SE,130,9.0,9.0,82,-99.99,,,-99.99,,2013-04-30 04:52:00,
2013-04-30 01:00:00,49.0,44.0,30.27,SE,130,7.0,8.0,83,-99.99,,,-99.99,,2013-04-30 05:00:00,
2013-04-30 01:21:00,49.0,44.0,30.27,SE,130,7.0,8.0,83,-99.99,,,-99.99,,2013-04-30 05:21:00,
2013-04-30 01:31:00,49.0,44.0,30.27,SE,130,7.0,8.0,83,-99.99,,,-99.99,,2013-04-30 05:31:00,
2013-04-30 01:42:00,49.0,44.0,30.27,SE,130,7.0,8.0,83,-99.99,,,-99.99,,2013-04-30 05:42:00,
2013-04-30 01:51:00,49.0,44.0,30.27,SE,130,7.0,8.0,83,-99.99,,,-99.99,,2013-04-30 05:51:00,
2013-04-30 02:00:00,49.0,45.0,30.27,East,80,3.0,5.0,86,-99.99,,,-99.99,,2013-04-30 06:00:00,
2013-04-30 02:21:00,49.0,45.0,30.27,East,80,3.0,5.0,86,-99.99,,,-99.99,,2013-04-30 06:21:00,
2013-04-30 02:31:00,49.0,45.0,30.27,East,80,3.0,5.0,86,-99.99,,,-99.99,,2013-04-30 06:31:00,
2013-04-30 02:41:00,49.0,45.0,30.27,East,80,3.0,5.0,86,-99.99,,,-99.99,,2013-04-30 06:41:00,
2013-04-30 02:51:00,49.0,45.0,30.27,East,80,3.0,5.0,86,-99.99,,,-99.99,,2013-04-30 06:51:00,
2013-04-30 03:00:00,48.0,42.0,30.27,NE,50,3.0,5.0,80,-99.99,,,-99.99,,2013-04-30 07:00:00,
2013-04-30 03:21:00,48.0,42.0,30.27,NE,50,3.0,5.0,80,-99.99,,,-99.99,,2013-04-30 07:21:00,
2013-04-30 03:31:00,48.0,42.0,30.27,NE,50,3.0,5.0,80,-99.99,,,-99.99,,2013-04-30 07:31:00,
2013-04-30 03:41:00,48.0,42.0,30.27,NE,50,3.0,5.0,80,-99.99,,,-99.99,,2013-04-30 07:41:00,
2013-04-30 03:52:00,48.0,42.0,30.27,NE,50,3.0,5.0,80,-99.99,,,-99.99,,2013-04-30 07:52:00,
2013-04-30 04:00:00,48.0,44.0,30.27,NE,40,6.0,7.0,83,-99.99,,,-99.99,,2013-04-30 08:00:00,
2013-04-30 04:21:00,48.0,44.0,30.27,NE,40,6.0,7.0,83,-99.99,,,-99.99,,2013-04-30 08:21:00,
2013-04-30 04:31:00,48.0,44.0,30.27,NE,40,6.0,7.0,83,-99.99,,,-99.99,,2013-04-30 08:31:00,
2013-04-30 04:41:00,48.0,44.0,30.27,NE,40,6.0,7.0,83,-99.99,,,-99.99,,2013-04-30 08:41:00,
2013-04-30 04:51:00,48.0,44.0,30.27,NE,40,6.0,7.0,83,-99.99,,,-99.99,,2013-04-30 08:51:00,
2013-04-30 05:00:00,49.0,35.0,30.28,NE,50,10.0,10.0,57,-99.99,,,-99.99,,2013-04-30 09:00:00,
2013-04-30 05:21:00,49.0,35.0,30.28,NE,50,10.0,10.0,57,-99.99,,,-99.99,,2013-04-30 09:21:00,
2013-04-30 05:32:00,49.0,35.0,30.28,NE,50,10.0,10.0,57,-99.99,,,-99.99,,2013-04-30 09:32:00,
2013-04-30 05:42:00,49.0,35.0,30.28,NE,50,10.0,10.0,57,-99.99,,,-99.99,,2013-04-30 09:42:00,
2013-04-30 05:52:00,49.0,35.0,30.28,NE,50,10.0,10.0,57,-99.99,,,-99.99,,2013-04-30 09:52:00,
2013-04-30 06:00:00,49.0,42.0,30.29,NE,50,10.0,10.0,76,-99.99,,,-99.99,,2013-04-30 10:00:00,
2013-04-30 06:22:00,49.0,42.0,30.29,NE,50,10.0,10.0,76,-99.99,,,-99.99,,2013-04-30 10:22:00,
2013-04-30 06:32:00,49.0,42.0,30.29,NE,50,10.0,10.0,76,-99.99,,,-99.99,,2013-04-30 10:32:00,
2013-04-30 06:41:00,49.0,42.0,30.29,NE,50,10.0,10.0,76,-99.99,,,-99.99,,2013-04-30 10:41:00,
2013-04-30 06:52:00,49.0,42.0,30.29,NE,50,10.0,10.0,76,-99.99,,,-99.99,,2013-04-30 10:52:00,
2013-04-30 07:00:00,49.0,37.0,30.31,ENE,60,9.0,9.0,61,-99.99,,,-99.99,,2013-04-30 11:00:00,
2013-04-30 07:21:00,49.0,37.0,30.31,ENE,60,9.0,9.0,61,-99.99,,,-99.99,,2013-04-30 11:21:00,
2013-04-30 07:31:00,49.0,37.0,30.31,ENE,60,9.0,9.0,61,-99.99,,,-99.99,,2013-04-30 11:31:00,
2013-04-30 07:42:00,49.0,37.0,30.31,ENE,60,9.0,9.0,61,-99.99,,,-99.99,,2013-04-30 11:42:00,
2013-04-30 07:51:00,49.0,37.0,30.31,ENE,60,9.0,9.0,61,-99.99,,,-99.99,,2013-04-30 11:51:00,
2013-04-30 08:00:00,50.0,41.0,30.32,NE,50,10.0,10.0,71,-99.99,,,-99.99,,2013-04-30 12:00:00,
2013-04-30 08:21:00,50.0,41.0,30.32,NE,50,10.0,10.0,71,-99.99,,,-99.99,,2013-04-30 12:21:00,
2013-04-30 08:31:00,50.0,41.0,30.32,NE,50,10.0,10.0,71,-99.99,,,-99.99,,2013-04-30 12:31:00,
2013-04-30 08:41:00,50.0,41.0,30.32,NE,50,10.0,10.0,71,-99.99,,,-99.99,,2013-04-30 12:41:00,
2013-04-30 08:51:00,50.0,41.0,30.32,NE,50,10.0,10.0,71,-99.99,,,-99.99,,2013-04-30 12:51:00,
2013-04-30 09:00:00,50.0,44.0,30.34,NE,50,6.0,7.0,77,-99.99,,,-99.99,,2013-04-30 13:00:00,
2013-04-30 09:21:00,50.0,44.0,30.34,NE,50,6.0,7.0,77,-99.99,,,-99.99,,2013-04-30 13:21:00,
2013-04-30 09:31:00,50.0,44.0,30.34,NE,50,6.0,7.0,77,-99.99,,,-99.99,,2013-04-30 13:31:00,
2013-04-30 09:41:00,50.0,44.0,30.34,NE,50,6.0,7.0,77,-99.99,,,-99.99,,2013-04-30 13:41:00,
2013-04-30 09:51:00,50.0,44.0,30.34,NE,50,6.0,7.0,77,-99.99,,,-99.99,,2013-04-30 13:51:00,
2013-04-30 10:21:00,51.0,45.0,30.35,East,80,2.0,2.0,79,-99.99,,,-99.99,,2013-04-30 14:21:00,
2013-04-30 10:31:00,51.0,45.0,30.35,East,80,2.0,2.0,79,-99.99,,,-99.99,,2013-04-30 14:31:00,
2013-04-30 11:21:00,51.0,44.0,30.35,East,100,2.0,2.0,77,-99.99,,,-99.99,,2013-04-30 15:21:00,
2013-04-30 11:32:00,51.0,44.0,30.35,East,100,2.0,2.0,77,-99.99,,,-99.99,,2013-04-30 15:32:00,
2013-04-30 12:00:00,52.0,38.0,30.35,North,0,0.0,1.0,59,-99.99,,,-99.99,,2013-04-30 16:00:00,
2013-04-30 12:22:00,52.0,38.0,30.35,North,0,0.0,1.0,59,-99.99,,,-99.99,,2013-04-30 16:22:00,
2013-04-30 12:32:00,52.0,38.0,30.35,North,0,0.0,1.0,59,-99.99,,,-99.99,,2013-04-30 16:32:00,
2013-04-30 12:42:00,52.0,38.0,30.35,North,0,0.0,1.0,59,-99.99,,,-99.99,,2013-04-30 16:42:00,
2013-04-30 12:52:00,52.0,38.0,30.35,North,0,0.0,1.0,59,-99.99,,,-99.99,,2013-04-30 16:52:00,
2013-04-30 13:00:00,51.0,40.0,30.34,ESE,120,2.0,3.0,65,-99.99,,,-99.99,,2013-04-30 17:00:00,
2013-04-30 13:22:00,51.0,40.0,30.34,ESE,120,2.0,3.0,65,-99.99,,,-99.99,,2013-04-30 17:22:00,
2013-04-30 13:32:00,51.0,40.0,30.34,ESE,120,2.0,3.0,65,-99.99,,,-99.99,,2013-04-30 17:32:00,
2013-04-30 13:41:00,51.0,40.0,30.34,ESE,120,2.0,3.0,65,-99.99,,,-99.99,,2013-04-30 17:41:00,
2013-04-30 13:52:00,51.0,40.0,30.34,ESE,120,2.0,3.0,65,-99.99,,,-99.99,,2013-04-30 17:52:00,
2013-04-30 14:22:00,51.0,45.0,30.34,South,170,7.0,8.0,82,-99.99,,,-99.99,,2013-04-30 18:22:00,
2013-04-30 14:32:00,51.0,45.0,30.34,South,170,7.0,8.0,82,-99.99,,,-99.99,,2013-04-30 18:32:00,
2013-04-30 15:21:00,51.0,40.0,30.34,SSE,150,7.0,8.0,66,-99.99,,,-99.99,,2013-04-30 19:21:00,
2013-04-30 15:31:00,51.0,40.0,30.34,SSE,150,7.0,8.0,66,-99.99,,,-99.99,,2013-04-30 19:31:00,
2013-04-30 16:00:00,51.0,39.0,30.33,South,170,9.0,10.0,62,-99.99,,,-99.99,,2013-04-30 20:00:00,
2013-04-30 16:21:00,51.0,39.0,30.33,South,170,9.0,10.0,62,-99.99,,,-99.99,,2013-04-30 20:21:00,
2013-04-30 16:32:00,51.0,39.0,30.33,South,170,9.0,10.0,62,-99.99,,,-99.99,,2013-04-30 20:32:00,
2013-04-30 16:42:00,51.0,39.0,30.33,South,170,9.0,10.0,62,-99.99,,,-99.99,,2013-04-30 20:42:00,
2013-04-30 16:52:00,51.0,39.0,30.33,South,170,9.0,10.0,62,-99.99,,,-99.99,,2013-04-30 20:52:00,
2013-04-30 17:00:00,51.0,37.0,30.33,SSE,160,9.0,9.0,57,-99.99,,,-99.99,,2013-04-30 21:00:00,
2013-04-30 17:21:00,51.0,37.0,30.33,SSE,160,9.0,9.0,57,-99.99,,,-99.99,,2013-04-30 21:21:00,
2013-04-30 17:32:00,51.0,37.0,30.33,SSE,160,9.0,9.0,57,-99.99,,,-99.99,,2013-04-30 21:32:00,
2013-04-30 17:42:00,51.0,37.0,30.33,SSE,160,9.0,9.0,57,-99.99,,,-99.99,,2013-04-30 21:42:00,
2013-04-30 17:52:00,51.0,37.0,30.33,SSE,160,9.0,9.0,57,-99.99,,,-99.99,,2013-04-30 21:52:00,
2013-04-30 18:00:00,52.0,38.0,30.34,South,190,6.0,7.0,60,-99.99,,,-99.99,,2013-04-30 22:00:00,
2013-04-30 18:22:00,52.0,38.0,30.34,South,190,6.0,7.0,60,-99.99,,,-99.99,,2013-04-30 22:22:00,
2013-04-30 18:32:00,52.0,38.0,30.34,South,190,6.0,7.0,60,-99.99,,,-99.99,,2013-04-30 22:32:00,
2013-04-30 18:41:00,52.0,38.0,30.34,South,190,6.0,7.0,60,-99.99,,,-99.99,,2013-04-30 22:41:00,
2013-04-30 18:52:00,52.0,38.0,30.34,South,190,6.0,7.0,60,-99.99,,,-99.99,,2013-04-30 22:52:00,
2013-04-30 19:00:00,52.0,34.0,30.35,SSE,150,8.0,8.0,50,-99.99,,,-99.99,,2013-04-30 23:00:00,
2013-04-30 19:21:00,52.0,34.0,30.35,SSE,150,8.0,8.0,50,-99.99,,,-99.99,,2013-04-30 23:21:00,
2013-04-30 19:32:00,52.0,34.0,30.35,SSE,150,8.0,8.0,50,-99.99,,,-99.99,,2013-04-30 23:32:00,
2013-04-30 19:42:00,52.0,34.0,30.35,SSE,150,8.0,8.0,50,-99.99,,,-99.99,,2013-04-30 23:42:00,
2013-04-30 19:52:00,52.0,34.0,30.35,SSE,150,8.0,8.0,50,-99.99,,,-99.99,,2013-04-30 23:52:00,
2013-04-30 20:00:00,51.0,39.0,30.35,South,170,7.0,7.0,63,-99.99,,,-99.99,,2013-05-01 00:00:00,
2013-04-30 20:21:00,51.0,39.0,30.35,South,170,7.0,7.0,63,-99.99,,,-99.99,,2013-05-01 00:21:00,
2013-04-30 20:31:00,51.0,39.0,30.35,South,170,7.0,7.0,63,-99.99,,,-99.99,,2013-05-01 00:31:00,
2013-04-30 20:42:00,51.0,39.0,30.35,South,170,7.0,7.0,63,-99.99,,,-99.99,,2013-05-01 00:42:00,
2013-04-30 20:51:00,51.0,39.0,30.35,South,170,7.0,7.0,63,-99.99,,,-99.99,,2013-05-01 00:51:00,
2013-04-30 21:00:00,51.0,36.0,30.37,SSE,150,3.0,3.0,55,-99.99,,,-99.99,,2013-05-01 01:00:00,
2013-04-30 21:21:00,51.0,36.0,30.37,SSE,150,3.0,3.0,55,-99.99,,,-99.99,,2013-05-01 01:21:00,
2013-04-30 21:31:00,51.0,36.0,30.37,SSE,150,3.0,3.0,55,-99.99,,,-99.99,,2013-05-01 01:31:00,
2013-04-30 21:41:00,51.0,36.0,30.37,SSE,150,3.0,3.0,55,-99.99,,,-99.99,,2013-05-01 01:41:00,
2013-04-30 21:52:00,51.0,36.0,30.37,SSE,150,3.0,3.0,55,-99.99,,,-99.99,,2013-05-01 01:52:00,
2013-04-30 22:00:00,50.0,40.0,30.37,East,100,6.0,6.0,70,-99.99,,,-99.99,,2013-05-01 02:00:00,
2013-04-30 22:21:00,50.0,40.0,30.37,East,100,6.0,6.0,70,-99.99,,,-99.99,,2013-05-01 02:21:00,
2013-04-30 22:32:00,50.0,40.0,30.37,East,100,6.0,6.0,70,-99.99,,,-99.99,,2013-05-01 02:32:00,
2013-04-30 22:42:00,50.0,40.0,30.37,East,100,6.0,6.0,70,-99.99,,,-99.99,,2013-05-01 02:42:00,
2013-04-30 22:51:00,50.0,40.0,30.37,East,100,6.0,6.0,70,-99.99,,,-99.99,,2013-05-01 02:51:00,
2013-04-30 23:00:00,49.0,41.0,30.37,NE,50,6.0,7.0,73,-99.99,,,-99.99,,2013-05-01 03:00:00,
2013-04-30 23:21:00,49.0,41.0,30.37,NE,50,6.0,7.0,73,-99.99,,,-99.99,,2013-05-01 03:21:00,
2013-04-30 23:32:00,49.0,41.0,30.37,NE,50,6.0,7.0,73,-99.99,,,-99.99,,2013-05-01 03:32:00,
2013-04-30 23:42:00,49.0,41.0,30.37,NE,50,6.0,7.0,73,-99.99,,,-99.99,,2013-05-01 03:42:00,
2013-04-30 23:52:00,49.0,41.0,30.37,NE,50,6.0,7.0,73,-99.99,,,-99.99,,2013-05-01 03:52:00,